Latest Weather Observations for Canterbury

IDN60801

Issued at 5:35 pm EST Thursday 18 September 2014 (issued every 30 minutes, with the page automatically refreshed every 10 minutes)

About weather observations | Map of weather stations | Latest weather observations for NSW | Other Formats
Station Details ID: 066194 Name: CANTERBURY RACECOURSE AWS Lat: -33.91 Lon: 151.11 Height: 3.0 m
Data from the previous 72 hours. | See also: Recent months at Canterbury
Date/Time
EST
Temp
°C
App
Temp
°C
Dew
Point
Rel
Hum
%
Delta-T
°C
Wind Press
QNH
hPa
Press
MSL
hPa
Rain
since 9 am
mm
Dir
 
Spd
km/h
Gust
km/h
Spd
kts
Gust
kts
18/05:30pm 14.8 10.1 3.3 46 5.2 SE 17 22 9 12 - - 0.0
18/05:00pm 15.1 9.9 3.3 45 5.3 SE 20 28 11 15 - - 0.0
18/04:30pm 15.5 10.5 3.6 45 5.4 SSE 19 28 10 15 - - 0.0
18/04:00pm 15.7 9.6 2.8 42 5.8 SE 24 35 13 19 - - 0.0
18/03:30pm 15.9 10.1 2.3 40 6.1 SSE 22 32 12 17 - - 0.0
18/03:00pm 16.4 10.2 2.1 38 6.4 SE 24 35 13 19 - - 0.0
18/02:30pm 16.8 11.5 2.8 39 6.4 SSE 20 30 11 16 - - 0.0
18/02:00pm 16.7 10.5 2.3 38 6.5 SE 24 32 13 17 - - 0.0
18/01:30pm 16.9 11.8 1.0 34 7.0 SSE 17 22 9 12 - - 0.0
18/01:00pm 16.9 12.4 2.1 37 6.6 SSE 15 22 8 12 - - 0.0
18/12:30pm 16.6 11.5 0.7 34 6.9 E 17 26 9 14 - - 0.0
18/12:00pm 16.6 11.9 0.7 34 6.9 SE 15 22 8 12 - - 0.0
18/11:30am 17.4 12.2 0.1 31 7.5 S 17 22 9 12 - - 0.0
18/11:00am 17.2 13.6 0.4 32 7.3 SSW 9 17 5 9 - - 0.0
18/10:30am 16.3 11.7 -0.8 31 7.2 WSW 13 26 7 14 - - 0.0
18/10:00am 16.0 10.7 -0.7 32 7.0 SW 17 28 9 15 - - 0.0
18/09:30am 15.4 9.9 0.4 36 6.4 WSW 19 30 10 16 - - 0.0
18/09:00am 14.7 8.5 -0.2 36 6.2 WSW 22 33 12 18 - - 0.0
18/08:30am 14.1 8.5 1.1 41 5.6 W 20 30 11 16 - - 0.0
18/08:00am 13.6 9.3 1.3 43 5.3 WSW 13 24 7 13 - - 0.0
18/07:30am 13.4 8.4 1.1 43 5.2 WSW 17 26 9 14 - - 0.0
18/07:00am 13.0 7.8 0.4 42 5.3 W 17 24 9 13 - - 0.0
18/06:30am 11.3 7.1 1.8 52 4.0 WSW 13 22 7 12 - - 0.0
18/06:00am 6.3 4.4 2.6 77 1.5 NNW 2 7 1 4 - - 0.0
18/05:30am 7.4 5.4 2.3 70 2.1 NNW 2 6 1 3 - - 0.0
18/05:00am 8.1 6.5 2.4 67 2.4 CALM 0 0 0 0 - - 0.0
18/04:30am 9.8 6.8 2.2 59 3.2 W 7 7 4 4 - - 0.0
18/04:00am 11.1 8.2 1.6 52 4.0 WSW 6 9 3 5 - - 0.0
18/03:30am 12.4 8.9 1.4 47 4.7 SW 9 13 5 7 - - 0.0
18/03:00am 13.1 8.5 1.5 45 5.0 SW 15 24 8 13 - - 0.0
18/02:30am 12.6 8.4 1.9 48 4.6 WSW 13 22 7 12 - - 0.0
18/02:00am 11.9 8.4 1.5 49 4.4 W 9 13 5 7 - - 0.0
18/01:30am 11.4 8.0 1.9 52 4.0 W 9 13 5 7 - - 0.0
18/01:00am 11.2 8.2 1.7 52 4.0 W 7 9 4 5 - - 0.0
18/12:30am 12.8 9.7 1.5 46 4.8 W 7 13 4 7 - - 0.0
18/12:00am 13.7 10.2 1.4 43 5.3 W 9 17 5 9 - - 0.0
 
Date/Time
EST
Temp
°C
App
Temp
°C
Dew
Point
Rel
Hum
%
Delta-T
°C
Wind Press
QNH
hPa
Press
MSL
hPa
Rain
since 9 am
mm
Dir
 
Spd
km/h
Gust
km/h
Spd
kts
Gust
kts
17/11:30pm 14.1 9.9 1.4 42 5.5 W 13 19 7 10 - - 0.0
17/11:00pm 14.4 9.8 1.7 42 5.5 W 15 20 8 11 - - 0.0
17/10:30pm 14.8 10.3 2.0 42 5.6 W 15 22 8 12 - - 0.0
17/10:00pm 14.9 10.5 2.8 44 5.4 W 15 26 8 14 - - 0.0
17/09:30pm 14.4 10.8 3.2 47 5.0 W 11 22 6 12 - - 0.0
17/09:00pm 12.1 9.9 3.6 56 3.8 WNW 4 7 2 4 - - 0.0
17/08:30pm 13.4 11.9 3.2 50 4.5 CALM 0 0 0 0 - - 0.0
17/08:00pm 15.5 12.6 2.7 42 5.7 W 7 11 4 6 - - 0.0
17/07:30pm 16.6 12.9 2.2 38 6.5 W 11 20 6 11 - - 0.0
17/07:00pm 16.9 12.7 1.4 35 6.9 W 13 20 7 11 - - 0.0
17/06:30pm 17.5 11.1 1.1 33 7.2 W 24 35 13 19 - - 0.0
17/06:00pm 17.9 12.4 0.6 31 7.6 W 19 32 10 17 - - 0.0
17/05:30pm 18.4 11.9 0.1 29 8.0 W 24 43 13 23 - - 0.0
17/05:00pm 19.4 13.2 -0.1 27 8.5 W 22 35 12 19 - - 0.0
17/04:30pm 19.8 14.0 -0.2 26 8.8 W 20 30 11 16 - - 0.0
17/04:00pm 20.0 13.1 -0.1 26 8.9 W 26 50 14 27 - - 0.0
17/03:54pm 20.1 12.7 -0.5 25 9.0 WSW 28 46 15 25 - - 0.0
17/03:30pm 20.2 14.2 1.1 28 8.6 W 22 39 12 21 - - 0.0
17/03:15pm 20.2 13.1 1.6 29 8.5 WNW 28 46 15 25 - - 0.0
17/03:00pm 20.6 13.8 1.0 27 8.9 W 26 41 14 22 - - 0.0
17/02:30pm 20.1 13.4 1.5 29 8.5 W 26 39 14 21 - - 0.0
17/02:00pm 20.7 14.2 2.5 30 8.5 W 26 39 14 21 - - 0.0
17/01:30pm 20.8 14.5 1.6 28 8.8 W 24 35 13 19 - - 0.0
17/01:00pm 20.5 14.9 1.4 28 8.7 WSW 20 30 11 16 - - 0.0
17/12:30pm 20.4 15.0 2.7 31 8.3 WNW 20 32 11 17 - - 0.0
17/12:00pm 19.9 14.0 1.8 30 8.3 W 22 33 12 18 - - 0.0
17/11:30am 19.2 13.2 1.2 30 8.1 WSW 22 41 12 22 - - 0.0
17/11:00am 19.4 13.2 2.3 32 7.9 WSW 24 35 13 19 - - 0.0
17/10:30am 19.2 13.0 2.1 32 7.8 WSW 24 37 13 20 - - 0.0
17/10:00am 18.3 11.2 1.3 32 7.6 W 28 48 15 26 - - 0.0
17/09:56am 18.2 10.7 1.3 32 7.5 W 30 48 16 26 - - 0.0
17/09:30am 17.8 10.8 2.2 35 7.1 W 28 44 15 24 - - 0.0
17/09:00am 17.4 10.2 3.0 38 6.6 W 30 48 16 26 - - -
17/08:51am 16.9 9.5 2.1 37 6.6 W 30 48 16 26 - - -
17/08:30am 16.7 10.8 3.7 42 6.0 W 24 39 13 21 - - -
17/08:00am 16.3 10.7 3.4 42 5.9 W 22 33 12 18 - - -
17/07:30am 16.1 11.2 3.9 44 5.6 W 19 30 10 16 - - -
17/07:00am 15.1 10.7 4.5 49 4.9 W 17 24 9 13 - - -
17/06:30am 13.3 10.2 5.7 60 3.6 WNW 11 17 6 9 - - -
17/06:00am 9.6 7.8 7.2 85 1.1 NNW 6 7 3 4 - - -
17/05:30am 10.4 8.6 7.1 80 1.6 NNW 6 7 3 4 - - -
17/05:00am 10.3 9.4 6.1 75 1.9 CALM 0 0 0 0 - - -
17/04:30am 12.0 10.8 6.5 69 2.6 NNW 2 7 1 4 - - -
17/04:00am 12.6 10.7 6.6 67 2.9 NNW 6 7 3 4 - - -
17/03:30am 13.7 11.3 6.8 63 3.3 WNW 9 13 5 7 - - -
17/03:00am 13.6 11.2 6.9 64 3.2 WNW 9 13 5 7 - - 0.0
17/02:30am 12.5 10.4 6.5 67 2.9 WNW 7 9 4 5 - - -
17/02:00am 12.7 10.6 6.7 67 2.9 WNW 7 9 4 5 - - -
17/01:30am 13.0 10.9 6.8 66 3.0 WNW 7 11 4 6 - - -
17/01:00am 13.1 11.0 6.7 65 3.1 NW 7 9 4 5 - - -
17/12:30am 13.8 11.8 6.4 61 3.5 WNW 6 7 3 4 - - -
17/12:00am 14.6 12.1 6.4 58 4.0 NW 9 15 5 8 - - -
 
Date/Time
EST
Temp
°C
App
Temp
°C
Dew
Point
Rel
Hum
%
Delta-T
°C
Wind Press
QNH
hPa
Press
MSL
hPa
Rain
since 9 am
mm
Dir
 
Spd
km/h
Gust
km/h
Spd
kts
Gust
kts
16/11:30pm 14.9 12.0 6.5 57 4.1 NW 11 17 6 9 - - -
16/11:00pm 14.8 12.2 6.1 56 4.2 NW 9 15 5 8 - - -
16/10:30pm 15.5 12.2 6.2 54 4.5 WNW 13 19 7 10 - - -
16/10:00pm 15.7 12.0 6.4 54 4.5 WNW 15 20 8 11 - - -
16/09:30pm 16.2 12.1 6.3 52 4.8 WNW 17 30 9 16 - - -
16/09:00pm 16.6 12.5 6.1 50 5.1 W 17 24 9 13 - - -
16/08:30pm 17.3 14.3 5.9 47 5.5 W 11 19 6 10 - - -
16/08:00pm 18.0 15.0 5.9 45 5.9 WNW 11 17 6 9 - - -
16/07:30pm 18.5 14.4 6.0 44 6.1 W 17 28 9 15 - - -
16/07:00pm 19.0 13.7 5.1 40 6.7 W 22 32 12 17 - - -
16/06:30pm 19.3 14.7 5.4 40 6.8 WNW 19 28 10 15 - - -
16/06:00pm 20.1 14.8 5.0 37 7.4 W 22 35 12 19 - - -
16/05:30pm 20.8 15.0 4.4 34 7.9 W 24 41 13 22 - - -
16/05:00pm 21.5 17.4 4.6 33 8.3 W 15 26 8 14 - - -
16/04:30pm 22.0 17.3 5.0 33 8.4 W 19 30 10 16 - - -
16/04:00pm 22.0 22.7 13.4 58 5.0 WSW 2 11 1 6 - - -
16/03:30pm 21.3 21.3 13.5 61 4.5 NE 6 11 3 6 - - -
16/02:30pm 19.8 17.3 13.5 67 3.6 NNE 19 28 10 15 - - 0.0
16/02:00pm 19.4 17.9 13.1 67 3.6 NE 13 19 7 10 - - 0.0
16/01:30pm 20.3 17.8 13.5 65 3.9 ENE 19 26 10 14 - - 0.0
16/01:00pm 21.8 20.5 14.7 64 4.2 NE 15 19 8 10 - - 0.0
16/12:30pm 21.6 20.3 13.8 61 4.5 NNE 13 20 7 11 - - 0.0
16/12:00pm 21.2 19.5 14.6 66 3.9 NNE 17 26 9 14 - - 0.0
16/11:30am 20.5 18.1 13.7 65 3.9 NNE 19 30 10 16 - - 0.0
16/11:00am 19.1 19.0 13.9 72 3.0 NNW 7 11 4 6 - - 0.0
16/10:30am 17.9 16.1 13.4 75 2.5 N 15 24 8 13 - - 0.0
16/10:00am 18.9 17.4 14.2 74 2.7 NNE 15 22 8 12 - - 0.0
16/09:30am 19.2 16.8 14.5 74 2.7 NNE 20 32 11 17 - - 0.0
16/09:00am 19.2 16.9 14.2 73 2.9 NE 19 28 10 15 - - 0.2
16/08:30am 16.9 16.0 13.6 81 1.9 NE 11 17 6 9 - - 0.2
16/08:00am 16.2 15.8 13.1 82 1.7 WNW 7 9 4 5 - - 0.2
16/07:30am 15.3 16.4 13.5 89 1.0 CALM 0 0 0 0 - - 0.2
16/07:00am 14.5 14.2 13.2 92 0.7 W 7 7 4 4 - - 0.2
16/06:30am 13.5 14.3 12.4 93 0.6 CALM 0 0 0 0 - - 0.2
16/06:00am 13.8 13.3 12.2 90 0.9 NNW 6 9 3 5 - - 0.2
16/05:30am 14.5 13.6 12.7 89 1.0 S 9 15 5 8 - - 0.2
16/05:00am 14.3 14.0 12.7 90 0.9 ENE 6 11 3 6 - - 0.2
16/04:59am 14.2 13.9 12.6 90 0.9 ENE 6 11 3 6 - - 0.2
16/04:43am 14.2 12.5 12.6 90 0.9 NE 13 22 7 12 - - 0.2
16/04:30am 13.7 12.4 12.4 92 0.7 WNW 11 17 6 9 - - 0.0
16/04:00am 13.5 13.1 12.4 93 0.6 NNW 6 9 3 5 - - 0.0
16/03:30am 13.0 13.5 11.7 92 0.7 CALM 0 0 0 0 - - 0.0
16/03:00am 13.0 13.4 11.4 90 0.8 CALM 0 0 0 0 - - 0.0
16/02:30am 13.9 13.2 12.1 89 1.0 WNW 7 9 4 5 - - 0.0
16/02:00am 13.3 13.6 10.8 85 1.3 CALM 0 0 0 0 - - 0.0
16/01:30am 14.8 14.1 11.9 83 1.6 NNW 7 13 4 7 - - 0.0
16/01:00am 15.3 14.3 12.2 82 1.7 NNE 9 15 5 8 - - 0.0
16/12:30am 15.1 14.1 12.4 84 1.5 E 9 13 5 7 - - 0.0
16/12:00am 15.7 15.0 12.1 79 2.0 NW 7 11 4 6 - - 0.0
 
Date/Time
EST
Temp
°C
App
Temp
°C
Dew
Point
Rel
Hum
%
Delta-T
°C
Wind Press
QNH
hPa
Press
MSL
hPa
Rain
since 9 am
mm
Dir
 
Spd
km/h
Gust
km/h
Spd
kts
Gust
kts
15/11:30pm 14.9 14.9 12.4 85 1.4 W 4 7 2 4 - - 0.0
15/11:00pm 14.5 15.1 11.8 84 1.5 CALM 0 0 0 0 - - 0.0
15/10:30pm 14.8 15.4 11.9 83 1.6 CALM 0 0 0 0 - - 0.0
15/10:00pm 15.2 15.8 11.8 80 1.8 CALM 0 0 0 0 - - 0.0
15/09:30pm 15.4 15.6 11.8 79 1.9 WNW 2 7 1 4 - - 0.0
15/09:00pm 15.7 15.7 11.1 74 2.5 NNE 2 7 1 4 - - 0.0
15/08:30pm 16.4 15.6 11.6 73 2.6 NE 7 11 4 6 - - 0.0
15/08:00pm 16.4 15.5 11.3 72 2.7 ENE 7 15 4 8 - - 0.0
15/07:30pm 16.7 14.3 11.4 71 2.9 ENE 15 19 8 10 - - 0.0
15/07:00pm 16.9 14.1 11.4 70 3.0 ENE 17 24 9 13 - - 0.0
15/06:30pm 16.8 14.4 11.3 70 3.0 ENE 15 19 8 10 - - 0.0
15/06:00pm 17.0 14.9 11.1 68 3.2 ENE 13 20 7 11 - - 0.0

Other Formats:

Comma delimited format used in spreadsheet applications
http://www.bom.gov.au/fwo/IDN60801/IDN60801.94766.axf

JavaScript Object Notation format (JSON) in row-major order
http://www.bom.gov.au/fwo/IDN60801/IDN60801.94766.json